sensor_id;sensor_type;location;lat;lon;timestamp;pressure;altitude;pressure_sealevel;temperature;humidity
22964;BME280;11648;49.306;6.934;2023-10-09T00:02:09;99066.16;;;18.25;73.02
22964;BME280;11648;49.306;6.934;2023-10-09T00:04:38;99066.81;;;18.32;72.31
22964;BME280;11648;49.306;6.934;2023-10-09T00:07:09;99065.88;;;18.35;72.22
22964;BME280;11648;49.306;6.934;2023-10-09T00:09:38;99057.91;;;18.33;71.98
22964;BME280;11648;49.306;6.934;2023-10-09T00:12:18;99060.00;;;18.23;72.25
22964;BME280;11648;49.306;6.934;2023-10-09T00:14:54;99061.59;;;18.29;71.58
22964;BME280;11648;49.306;6.934;2023-10-09T00:17:33;99057.91;;;18.33;71.39
22964;BME280;11648;49.306;6.934;2023-10-09T00:20:00;99057.00;;;18.34;70.69
22964;BME280;11648;49.306;6.934;2023-10-09T00:22:34;99061.09;;;18.44;69.82
22964;BME280;11648;49.306;6.934;2023-10-09T00:25:08;99069.66;;;18.27;69.40
22964;BME280;11648;49.306;6.934;2023-10-09T00:27:39;99060.94;;;18.22;69.48
22964;BME280;11648;49.306;6.934;2023-10-09T00:30:14;99076.38;;;18.11;69.83
22964;BME280;11648;49.306;6.934;2023-10-09T00:32:57;99067.47;;;18.12;70.88
22964;BME280;11648;49.306;6.934;2023-10-09T00:35:25;99065.28;;;18.25;70.64
22964;BME280;11648;49.306;6.934;2023-10-09T00:38:13;99063.34;;;18.30;70.53
22964;BME280;11648;49.306;6.934;2023-10-09T00:40:51;99059.53;;;18.39;70.84
22964;BME280;11648;49.306;6.934;2023-10-09T00:43:31;99055.88;;;18.41;71.23
22964;BME280;11648;49.306;6.934;2023-10-09T00:46:00;99043.88;;;18.28;72.44
22964;BME280;11648;49.306;6.934;2023-10-09T00:48:38;99045.72;;;18.26;72.77
22964;BME280;11648;49.306;6.934;2023-10-09T00:51:08;99044.47;;;18.36;72.53
22964;BME280;11648;49.306;6.934;2023-10-09T00:53:48;99031.56;;;18.50;72.78
22964;BME280;11648;49.306;6.934;2023-10-09T00:56:20;99034.94;;;18.57;72.53
22964;BME280;11648;49.306;6.934;2023-10-09T00:58:54;99032.22;;;18.58;72.03
22964;BME280;11648;49.306;6.934;2023-10-09T01:01:42;99030.72;;;18.50;71.77
22964;BME280;11648;49.306;6.934;2023-10-09T01:04:24;99024.97;;;18.62;71.11
22964;BME280;11648;49.306;6.934;2023-10-09T01:06:54;99018.66;;;18.64;70.92
22964;BME280;11648;49.306;6.934;2023-10-09T01:09:39;99023.81;;;18.70;70.68
22964;BME280;11648;49.306;6.934;2023-10-09T01:12:11;99027.16;;;18.75;70.00
22964;BME280;11648;49.306;6.934;2023-10-09T01:14:45;99033.59;;;18.70;69.87
22964;BME280;11648;49.306;6.934;2023-10-09T01:17:19;99031.56;;;18.52;70.00
22964;BME280;11648;49.306;6.934;2023-10-09T01:19:56;99023.34;;;18.58;70.09
22964;BME280;11648;49.306;6.934;2023-10-09T01:22:24;99027.00;;;18.55;70.44
22964;BME280;11648;49.306;6.934;2023-10-09T01:24:51;99028.88;;;18.52;69.81
22964;BME280;11648;49.306;6.934;2023-10-09T01:27:21;99033.53;;;18.45;70.13
22964;BME280;11648;49.306;6.934;2023-10-09T01:29:52;99029.09;;;18.44;70.42
22964;BME280;11648;49.306;6.934;2023-10-09T01:32:19;99034.59;;;18.40;70.36
22964;BME280;11648;49.306;6.934;2023-10-09T01:34:47;99025.53;;;18.45;70.44
22964;BME280;11648;49.306;6.934;2023-10-09T01:37:19;99024.50;;;18.49;70.63
22964;BME280;11648;49.306;6.934;2023-10-09T01:39:54;99011.13;;;18.51;70.91
22964;BME280;11648;49.306;6.934;2023-10-09T01:42:25;99016.44;;;18.52;71.00
22964;BME280;11648;49.306;6.934;2023-10-09T01:45:02;99006.41;;;18.59;71.59
22964;BME280;11648;49.306;6.934;2023-10-09T01:47:49;99005.19;;;18.43;72.23
22964;BME280;11648;49.306;6.934;2023-10-09T01:50:21;99004.34;;;18.41;72.03
22964;BME280;11648;49.306;6.934;2023-10-09T01:52:49;98997.34;;;18.38;72.05
22964;BME280;11648;49.306;6.934;2023-10-09T01:55:17;98997.19;;;18.43;72.15
22964;BME280;11648;49.306;6.934;2023-10-09T01:58:01;98993.34;;;18.51;71.46
22964;BME280;11648;49.306;6.934;2023-10-09T02:00:47;98985.03;;;18.34;70.63
22964;BME280;11648;49.306;6.934;2023-10-09T02:03:23;98984.00;;;18.38;70.72
22964;BME280;11648;49.306;6.934;2023-10-09T02:05:51;98997.00;;;18.47;70.28
22964;BME280;11648;49.306;6.934;2023-10-09T02:08:20;98993.78;;;18.38;69.96
22964;BME280;11648;49.306;6.934;2023-10-09T02:10:53;98989.63;;;18.29;70.10
22964;BME280;11648;49.306;6.934;2023-10-09T02:13:23;98985.03;;;18.34;70.42
22964;BME280;11648;49.306;6.934;2023-10-09T02:15:56;98978.81;;;18.34;69.97
22964;BME280;11648;49.306;6.934;2023-10-09T02:18:41;98980.28;;;18.17;70.57
22964;BME280;11648;49.306;6.934;2023-10-09T02:21:22;98969.88;;;18.10;71.07
22964;BME280;11648;49.306;6.934;2023-10-09T02:24:02;98973.03;;;18.21;70.67
22964;BME280;11648;49.306;6.934;2023-10-09T02:26:35;98977.78;;;18.11;71.61
22964;BME280;11648;49.306;6.934;2023-10-09T02:29:01;98978.63;;;18.13;70.97
22964;BME280;11648;49.306;6.934;2023-10-09T02:31:32;98976.63;;;18.20;70.65
22964;BME280;11648;49.306;6.934;2023-10-09T02:34:08;98973.09;;;18.19;70.39
22964;BME280;11648;49.306;6.934;2023-10-09T02:36:34;98979.44;;;18.15;70.53
22964;BME280;11648;49.306;6.934;2023-10-09T02:39:05;98971.00;;;18.03;71.06
22964;BME280;11648;49.306;6.934;2023-10-09T02:41:33;98974.59;;;18.00;71.04
22964;BME280;11648;49.306;6.934;2023-10-09T02:44:01;98972.72;;;18.04;70.90
22964;BME280;11648;49.306;6.934;2023-10-09T02:46:38;98969.91;;;18.08;70.35
22964;BME280;11648;49.306;6.934;2023-10-09T02:49:07;98970.75;;;18.10;70.50
22964;BME280;11648;49.306;6.934;2023-10-09T02:51:37;98977.78;;;18.11;70.38
22964;BME280;11648;49.306;6.934;2023-10-09T02:54:09;98970.66;;;18.12;70.11
22964;BME280;11648;49.306;6.934;2023-10-09T02:56:47;98973.22;;;18.15;70.22
22964;BME280;11648;49.306;6.934;2023-10-09T02:59:21;98971.91;;;18.02;70.68
22964;BME280;11648;49.306;6.934;2023-10-09T03:01:50;98966.69;;;17.99;70.55
22964;BME280;11648;49.306;6.934;2023-10-09T03:04:20;98966.69;;;17.99;70.78
22964;BME280;11648;49.306;6.934;2023-10-09T03:06:50;98962.13;;;18.02;71.39
22964;BME280;11648;49.306;6.934;2023-10-09T03:09:18;98962.75;;;18.10;70.64
22964;BME280;11648;49.306;6.934;2023-10-09T03:11:46;98965.31;;;18.13;70.96
22964;BME280;11648;49.306;6.934;2023-10-09T03:14:15;98961.44;;;18.22;70.35
22964;BME280;11648;49.306;6.934;2023-10-09T03:16:47;98962.31;;;18.22;70.83
22964;BME280;11648;49.306;6.934;2023-10-09T03:19:16;98960.66;;;18.18;70.80
22964;BME280;11648;49.306;6.934;2023-10-09T03:21:43;98965.75;;;18.26;70.86
22964;BME280;11648;49.306;6.934;2023-10-09T03:24:10;98966.09;;;18.15;71.55
22964;BME280;11648;49.306;6.934;2023-10-09T03:26:38;98965.44;;;18.09;71.68
22964;BME280;11648;49.306;6.934;2023-10-09T03:29:05;98978.56;;;18.15;70.80
22964;BME280;11648;49.306;6.934;2023-10-09T03:31:39;98978.44;;;18.18;70.31
22964;BME280;11648;49.306;6.934;2023-10-09T03:34:09;98969.75;;;18.13;70.35
22964;BME280;11648;49.306;6.934;2023-10-09T03:36:37;98974.25;;;18.11;70.56
22964;BME280;11648;49.306;6.934;2023-10-09T03:39:05;98974.66;;;17.99;71.13
22964;BME280;11648;49.306;6.934;2023-10-09T03:41:44;98976.13;;;18.07;70.57
22964;BME280;11648;49.306;6.934;2023-10-09T03:44:14;98983.59;;;17.96;71.68
22964;BME280;11648;49.306;6.934;2023-10-09T03:46:45;98980.09;;;17.96;70.97
22964;BME280;11648;49.306;6.934;2023-10-09T03:49:12;98984.19;;;18.06;71.30
22964;BME280;11648;49.306;6.934;2023-10-09T03:51:42;98989.63;;;18.03;71.06
22964;BME280;11648;49.306;6.934;2023-10-09T03:54:09;98981.31;;;18.12;70.80
22964;BME280;11648;49.306;6.934;2023-10-09T03:56:36;98976.88;;;18.12;71.36
22964;BME280;11648;49.306;6.934;2023-10-09T03:59:03;98977.22;;;18.02;72.11
22964;BME280;11648;49.306;6.934;2023-10-09T04:01:30;98982.84;;;17.93;72.84
22964;BME280;11648;49.306;6.934;2023-10-09T04:04:07;98977.38;;;17.97;72.97
22964;BME280;11648;49.306;6.934;2023-10-09T04:06:37;98983.91;;;17.87;73.87
22964;BME280;11648;49.306;6.934;2023-10-09T04:09:09;98978.69;;;17.84;74.49
22964;BME280;11648;49.306;6.934;2023-10-09T04:11:49;98968.59;;;17.94;74.21
22964;BME280;11648;49.306;6.934;2023-10-09T04:14:24;98963.75;;;17.78;75.36
22964;BME280;11648;49.306;6.934;2023-10-09T04:16:59;98962.22;;;17.99;74.56
22964;BME280;11648;49.306;6.934;2023-10-09T04:19:35;98956.38;;;18.14;74.46
22964;BME280;11648;49.306;6.934;2023-10-09T04:22:15;98961.63;;;18.17;74.39
22964;BME280;11648;49.306;6.934;2023-10-09T04:24:54;98951.81;;;18.18;74.36
22964;BME280;11648;49.306;6.934;2023-10-09T04:27:20;98947.09;;;18.26;73.77
22964;BME280;11648;49.306;6.934;2023-10-09T04:29:53;98947.72;;;18.34;73.59
22964;BME280;11648;49.306;6.934;2023-10-09T04:32:21;98956.91;;;18.50;72.70
22964;BME280;11648;49.306;6.934;2023-10-09T04:34:51;98958.69;;;18.51;71.44
22964;BME280;11648;49.306;6.934;2023-10-09T04:37:45;98956.03;;;18.51;70.56
22964;BME280;11648;49.306;6.934;2023-10-09T04:40:18;98961.03;;;18.34;70.12
22964;BME280;11648;49.306;6.934;2023-10-09T04:43:04;98972.94;;;18.24;70.67
22964;BME280;11648;49.306;6.934;2023-10-09T04:45:36;98964.09;;;18.22;70.75
22964;BME280;11648;49.306;6.934;2023-10-09T04:48:26;98968.78;;;18.15;70.90
22964;BME280;11648;49.306;6.934;2023-10-09T04:51:00;98966.56;;;18.02;71.79
22964;BME280;11648;49.306;6.934;2023-10-09T04:53:49;98969.75;;;18.13;71.29
22964;BME280;11648;49.306;6.934;2023-10-09T04:56:21;98969.13;;;18.05;71.52
22964;BME280;11648;49.306;6.934;2023-10-09T04:58:51;98978.38;;;18.21;71.18
22964;BME280;11648;49.306;6.934;2023-10-09T05:01:30;98981.44;;;18.09;70.61
22964;BME280;11648;49.306;6.934;2023-10-09T05:04:04;98977.22;;;18.02;70.80
22964;BME280;11648;49.306;6.934;2023-10-09T05:06:46;98985.22;;;18.02;70.66
22964;BME280;11648;49.306;6.934;2023-10-09T05:09:22;98980.00;;;17.99;70.75
22964;BME280;11648;49.306;6.934;2023-10-09T05:11:50;98984.66;;;17.92;71.16
22964;BME280;11648;49.306;6.934;2023-10-09T05:14:20;98981.81;;;17.97;70.85
22964;BME280;11648;49.306;6.934;2023-10-09T05:16:54;98984.06;;;17.83;71.27
22964;BME280;11648;49.306;6.934;2023-10-09T05:19:22;98985.81;;;17.84;71.36
22964;BME280;11648;49.306;6.934;2023-10-09T05:21:56;98980.38;;;17.87;71.28
22964;BME280;11648;49.306;6.934;2023-10-09T05:24:25;98992.78;;;17.88;70.83
22964;BME280;11648;49.306;6.934;2023-10-09T05:26:55;98990.75;;;17.96;70.80
22964;BME280;11648;49.306;6.934;2023-10-09T05:29:42;98991.56;;;17.98;70.90
22964;BME280;11648;49.306;6.934;2023-10-09T05:32:26;98989.69;;;18.01;70.89
22964;BME280;11648;49.306;6.934;2023-10-09T05:35:02;98995.03;;;18.00;70.86
22964;BME280;11648;49.306;6.934;2023-10-09T05:37:32;98986.97;;;18.03;70.75
22964;BME280;11648;49.306;6.934;2023-10-09T05:40:02;98991.47;;;18.01;70.94
22964;BME280;11648;49.306;6.934;2023-10-09T05:42:33;98988.09;;;17.96;70.96
22964;BME280;11648;49.306;6.934;2023-10-09T05:45:04;98985.34;;;17.97;70.91
22964;BME280;11648;49.306;6.934;2023-10-09T05:47:48;98980.91;;;17.98;70.95
22964;BME280;11648;49.306;6.934;2023-10-09T05:50:33;98989.09;;;17.92;71.22
22964;BME280;11648;49.306;6.934;2023-10-09T05:53:01;98988.03;;;17.97;71.14
22964;BME280;11648;49.306;6.934;2023-10-09T05:55:30;98988.69;;;18.04;70.75
22964;BME280;11648;49.306;6.934;2023-10-09T05:58:35;98979.91;;;18.02;70.54
22964;BME280;11648;49.306;6.934;2023-10-09T06:01:21;98980.69;;;18.04;70.63
22964;BME280;11648;49.306;6.934;2023-10-09T06:04:06;98983.25;;;18.07;70.92
22964;BME280;11648;49.306;6.934;2023-10-09T06:06:43;98985.25;;;18.00;70.90
22964;BME280;11648;49.306;6.934;2023-10-09T06:09:13;98986.81;;;18.07;70.88
22964;BME280;11648;49.306;6.934;2023-10-09T06:11:43;98992.97;;;18.09;70.56
22964;BME280;11648;49.306;6.934;2023-10-09T06:14:17;98987.00;;;18.01;70.29
22964;BME280;11648;49.306;6.934;2023-10-09T06:16:58;98989.94;;;18.20;69.78
22964;BME280;11648;49.306;6.934;2023-10-09T06:19:29;98992.63;;;18.20;69.56
22964;BME280;11648;49.306;6.934;2023-10-09T06:21:59;98992.53;;;18.21;69.83
22964;BME280;11648;49.306;6.934;2023-10-09T06:24:44;98994.16;;;18.27;69.59
22964;BME280;11648;49.306;6.934;2023-10-09T06:27:21;98999.13;;;18.38;69.29
22964;BME280;11648;49.306;6.934;2023-10-09T06:29:58;98992.56;;;18.48;69.46
22964;BME280;11648;49.306;6.934;2023-10-09T06:32:44;98993.88;;;18.61;69.32
22964;BME280;11648;49.306;6.934;2023-10-09T06:35:46;99001.31;;;18.78;69.40
22964;BME280;11648;49.306;6.934;2023-10-09T06:38:22;99007.84;;;18.94;69.10
22964;BME280;11648;49.306;6.934;2023-10-09T06:40:51;99006.88;;;18.96;68.54
22964;BME280;11648;49.306;6.934;2023-10-09T06:43:33;99019.09;;;19.03;68.51
22964;BME280;11648;49.306;6.934;2023-10-09T06:46:03;99017.09;;;19.08;67.83
22964;BME280;11648;49.306;6.934;2023-10-09T06:48:48;99013.78;;;19.02;67.79
22964;BME280;11648;49.306;6.934;2023-10-09T06:51:26;99029.63;;;19.06;67.73
22964;BME280;11648;49.306;6.934;2023-10-09T06:53:57;99029.63;;;19.06;67.11
22964;BME280;11648;49.306;6.934;2023-10-09T06:56:33;99016.28;;;19.06;67.52
22964;BME280;11648;49.306;6.934;2023-10-09T06:59:02;99030.44;;;19.08;67.51
22964;BME280;11648;49.306;6.934;2023-10-09T07:01:43;99017.81;;;19.13;67.67
22964;BME280;11648;49.306;6.934;2023-10-09T07:04:14;99026.47;;;19.20;67.79
22964;BME280;11648;49.306;6.934;2023-10-09T07:07:07;99033.31;;;19.27;68.07
22964;BME280;11648;49.306;6.934;2023-10-09T07:09:40;99029.63;;;19.54;67.63
22964;BME280;11648;49.306;6.934;2023-10-09T07:12:11;99025.34;;;19.73;67.13
22964;BME280;11648;49.306;6.934;2023-10-09T07:14:47;99023.13;;;19.85;66.73
22964;BME280;11648;49.306;6.934;2023-10-09T07:17:14;99026.59;;;19.87;66.36
22964;BME280;11648;49.306;6.934;2023-10-09T07:19:44;99031.50;;;19.97;66.13
22964;BME280;11648;49.306;6.934;2023-10-09T07:22:14;99038.44;;;20.03;65.82
22964;BME280;11648;49.306;6.934;2023-10-09T07:24:48;99041.25;;;20.00;65.82
22964;BME280;11648;49.306;6.934;2023-10-09T07:27:27;99047.56;;;20.19;65.62
22964;BME280;11648;49.306;6.934;2023-10-09T07:30:15;99040.69;;;20.13;64.72
22964;BME280;11648;49.306;6.934;2023-10-09T07:33:04;99038.44;;;20.03;65.13
22964;BME280;11648;49.306;6.934;2023-10-09T07:35:45;99033.53;;;20.14;65.28
22964;BME280;11648;49.306;6.934;2023-10-09T07:38:19;99040.03;;;20.30;64.85
22964;BME280;11648;49.306;6.934;2023-10-09T07:40:47;99039.72;;;20.38;65.17
22964;BME280;11648;49.306;6.934;2023-10-09T07:43:47;99028.69;;;20.45;64.88
22964;BME280;11648;49.306;6.934;2023-10-09T07:46:15;99028.63;;;20.68;64.26
22964;BME280;11648;49.306;6.934;2023-10-09T07:49:19;99027.13;;;21.02;63.76
22964;BME280;11648;49.306;6.934;2023-10-09T07:51:52;99025.63;;;21.16;62.48
22964;BME280;11648;49.306;6.934;2023-10-09T07:54:25;99032.03;;;21.33;62.29
22964;BME280;11648;49.306;6.934;2023-10-09T07:57:03;99042.81;;;21.31;62.02
22964;BME280;11648;49.306;6.934;2023-10-09T07:59:35;99033.34;;;21.43;62.12
22964;BME280;11648;49.306;6.934;2023-10-09T08:02:16;99039.72;;;21.40;61.95
22964;BME280;11648;49.306;6.934;2023-10-09T08:04:44;99036.53;;;21.32;61.67
22964;BME280;11648;49.306;6.934;2023-10-09T08:07:11;99050.78;;;21.33;62.04
22964;BME280;11648;49.306;6.934;2023-10-09T08:10:12;99048.84;;;21.36;61.99
22964;BME280;11648;49.306;6.934;2023-10-09T08:12:45;99049.81;;;21.54;61.56
22964;BME280;11648;49.306;6.934;2023-10-09T08:15:12;99051.34;;;21.78;61.42
22964;BME280;11648;49.306;6.934;2023-10-09T08:17:51;99041.75;;;21.93;60.74
22964;BME280;11648;49.306;6.934;2023-10-09T08:20:25;99042.16;;;22.02;60.62
22964;BME280;11648;49.306;6.934;2023-10-09T08:22:52;99034.78;;;22.26;59.81
22964;BME280;11648;49.306;6.934;2023-10-09T08:25:23;99029.69;;;22.56;59.11
22964;BME280;11648;49.306;6.934;2023-10-09T08:27:59;99022.88;;;23.02;58.63
22964;BME280;11648;49.306;6.934;2023-10-09T08:30:46;99009.63;;;23.49;58.08
22964;BME280;11648;49.306;6.934;2023-10-09T08:33:18;99018.19;;;23.88;56.58
22964;BME280;11648;49.306;6.934;2023-10-09T08:36:13;99013.59;;;24.22;55.70
22964;BME280;11648;49.306;6.934;2023-10-09T08:38:42;99012.06;;;24.63;54.75
22964;BME280;11648;49.306;6.934;2023-10-09T08:41:10;99026.81;;;25.01;53.69
22964;BME280;11648;49.306;6.934;2023-10-09T08:43:48;99017.91;;;25.29;52.50
22964;BME280;11648;49.306;6.934;2023-10-09T08:46:24;99019.28;;;25.50;51.86
22964;BME280;11648;49.306;6.934;2023-10-09T08:48:55;99034.16;;;25.58;51.96
22964;BME280;11648;49.306;6.934;2023-10-09T08:51:27;99030.13;;;25.79;51.61
22964;BME280;11648;49.306;6.934;2023-10-09T08:53:55;99041.25;;;26.01;51.15
22964;BME280;11648;49.306;6.934;2023-10-09T08:56:22;99046.81;;;26.12;51.16
22964;BME280;11648;49.306;6.934;2023-10-09T08:58:50;99039.72;;;26.25;51.36
22964;BME280;11648;49.306;6.934;2023-10-09T09:01:18;99032.41;;;26.67;50.70
22964;BME280;11648;49.306;6.934;2023-10-09T09:03:49;99032.72;;;27.54;49.40
22964;BME280;11648;49.306;6.934;2023-10-09T09:06:20;99023.81;;;28.62;46.83
22964;BME280;11648;49.306;6.934;2023-10-09T09:08:49;99006.03;;;29.74;43.79
22964;BME280;11648;49.306;6.934;2023-10-09T09:11:17;99004.13;;;30.30;41.40
22964;BME280;11648;49.306;6.934;2023-10-09T09:13:45;99002.63;;;30.48;40.70
22964;BME280;11648;49.306;6.934;2023-10-09T09:16:20;98995.00;;;30.42;39.83
22964;BME280;11648;49.306;6.934;2023-10-09T09:21:33;98990.75;;;29.05;41.18
22964;BME280;11648;49.306;6.934;2023-10-09T09:24:13;99008.09;;;28.31;42.64
22964;BME280;11648;49.306;6.934;2023-10-09T09:27:02;99013.22;;;27.74;43.96
22964;BME280;11648;49.306;6.934;2023-10-09T09:29:47;99015.16;;;27.34;45.26
22964;BME280;11648;49.306;6.934;2023-10-09T09:32:30;99026.72;;;27.23;46.42
22964;BME280;11648;49.306;6.934;2023-10-09T09:35:03;99034.53;;;27.15;46.91
22964;BME280;11648;49.306;6.934;2023-10-09T09:37:32;99031.81;;;27.15;47.40
22964;BME280;11648;49.306;6.934;2023-10-09T09:40:16;99015.91;;;27.23;47.07
22964;BME280;11648;49.306;6.934;2023-10-09T09:43:01;99012.78;;;27.42;46.50
22964;BME280;11648;49.306;6.934;2023-10-09T09:45:38;99011.38;;;27.36;45.91
22964;BME280;11648;49.306;6.934;2023-10-09T09:48:13;99002.63;;;27.45;45.63
22964;BME280;11648;49.306;6.934;2023-10-09T09:50:43;99000.03;;;27.44;45.43
22964;BME280;11648;49.306;6.934;2023-10-09T09:53:15;99004.69;;;27.80;44.57
22964;BME280;11648;49.306;6.934;2023-10-09T09:55:49;99000.13;;;27.68;44.08
22964;BME280;11648;49.306;6.934;2023-10-09T09:58:25;99015.53;;;27.55;45.53
22964;BME280;11648;49.306;6.934;2023-10-09T10:01:03;99015.59;;;27.40;45.89
22964;BME280;11648;49.306;6.934;2023-10-09T10:03:45;99029.53;;;27.22;46.39
22964;BME280;11648;49.306;6.934;2023-10-09T10:06:14;99022.72;;;27.04;46.31
22964;BME280;11648;49.306;6.934;2023-10-09T10:08:48;99025.59;;;26.88;47.01
22964;BME280;11648;49.306;6.934;2023-10-09T10:11:46;99027.97;;;26.92;46.97
22964;BME280;11648;49.306;6.934;2023-10-09T10:14:18;99029.13;;;27.15;46.58
22964;BME280;11648;49.306;6.934;2023-10-09T10:17:05;99026.69;;;27.99;45.68
22964;BME280;11648;49.306;6.934;2023-10-09T10:22:27;98994.38;;;30.50;39.33
22964;BME280;11648;49.306;6.934;2023-10-09T10:24:54;98996.84;;;31.26;37.92
22964;BME280;11648;49.306;6.934;2023-10-09T10:27:22;98989.75;;;31.55;36.67
22964;BME280;11648;49.306;6.934;2023-10-09T10:33:00;99006.28;;;31.22;37.73
22964;BME280;11648;49.306;6.934;2023-10-09T10:35:37;99004.91;;;30.96;37.62
22964;BME280;11648;49.306;6.934;2023-10-09T10:41:13;99007.69;;;30.53;39.38
22964;BME280;11648;49.306;6.934;2023-10-09T10:43:44;98999.06;;;30.48;39.12
22964;BME280;11648;49.306;6.934;2023-10-09T10:46:15;98979.84;;;31.33;37.94
22964;BME280;11648;49.306;6.934;2023-10-09T10:48:51;98964.25;;;33.32;33.69
22964;BME280;11648;49.306;6.934;2023-10-09T10:51:28;98954.25;;;33.97;32.45
22964;BME280;11648;49.306;6.934;2023-10-09T10:54:08;98954.91;;;34.89;31.19
22964;BME280;11648;49.306;6.934;2023-10-09T10:56:54;98955.97;;;34.88;30.77
22964;BME280;11648;49.306;6.934;2023-10-09T10:59:24;98950.22;;;34.46;30.84
22964;BME280;11648;49.306;6.934;2023-10-09T11:01:56;98960.94;;;34.12;30.49
22964;BME280;11648;49.306;6.934;2023-10-09T11:04:29;98980.41;;;33.72;32.13
22964;BME280;11648;49.306;6.934;2023-10-09T11:07:00;98987.81;;;33.23;33.16
22964;BME280;11648;49.306;6.934;2023-10-09T11:12:26;98998.44;;;31.79;35.19
22964;BME280;11648;49.306;6.934;2023-10-09T11:15:07;98986.44;;;31.52;35.68
22964;BME280;11648;49.306;6.934;2023-10-09T11:17:35;99002.81;;;31.61;36.03
22964;BME280;11648;49.306;6.934;2023-10-09T11:20:06;99001.06;;;31.91;35.60
22964;BME280;11648;49.306;6.934;2023-10-09T11:22:52;98995.22;;;32.45;35.38
22964;BME280;11648;49.306;6.934;2023-10-09T11:25:38;98991.00;;;33.00;34.69
22964;BME280;11648;49.306;6.934;2023-10-09T11:31:13;98958.19;;;34.39;30.15
22964;BME280;11648;49.306;6.934;2023-10-09T11:33:52;98957.59;;;34.98;29.20
22964;BME280;11648;49.306;6.934;2023-10-09T11:36:23;98957.75;;;35.66;27.94
22964;BME280;11648;49.306;6.934;2023-10-09T11:38:59;98949.72;;;36.06;27.86
22964;BME280;11648;49.306;6.934;2023-10-09T11:41:47;98945.94;;;37.54;25.56
22964;BME280;11648;49.306;6.934;2023-10-09T11:44:16;98925.38;;;38.82;23.94
22964;BME280;11648;49.306;6.934;2023-10-09T11:46:58;98915.53;;;39.62;22.25
22964;BME280;11648;49.306;6.934;2023-10-09T11:49:25;98922.78;;;39.26;22.33
22964;BME280;11648;49.306;6.934;2023-10-09T11:52:08;98931.59;;;39.73;22.60
22964;BME280;11648;49.306;6.934;2023-10-09T11:54:35;98922.72;;;40.22;22.09
22964;BME280;11648;49.306;6.934;2023-10-09T11:57:03;98922.09;;;40.20;21.58
22964;BME280;11648;49.306;6.934;2023-10-09T11:59:31;98921.53;;;40.67;21.56
22964;BME280;11648;49.306;6.934;2023-10-09T12:02:05;98918.81;;;41.09;21.27
22964;BME280;11648;49.306;6.934;2023-10-09T12:04:39;98910.38;;;41.79;20.41
22964;BME280;11648;49.306;6.934;2023-10-09T12:07:12;98892.88;;;42.07;19.99
22964;BME280;11648;49.306;6.934;2023-10-09T12:09:39;98902.06;;;41.38;20.67
22964;BME280;11648;49.306;6.934;2023-10-09T12:12:07;98898.13;;;41.88;20.08
22964;BME280;11648;49.306;6.934;2023-10-09T12:14:35;98887.81;;;41.42;19.63
22964;BME280;11648;49.306;6.934;2023-10-09T12:17:05;98890.59;;;40.14;20.06
22964;BME280;11648;49.306;6.934;2023-10-09T12:19:37;98882.22;;;39.34;21.00
22964;BME280;11648;49.306;6.934;2023-10-09T12:22:08;98885.28;;;38.65;21.97
22964;BME280;11648;49.306;6.934;2023-10-09T12:24:45;98889.00;;;37.32;23.92
22964;BME280;11648;49.306;6.934;2023-10-09T12:27:13;98896.91;;;35.96;26.01
22964;BME280;11648;49.306;6.934;2023-10-09T12:29:39;98890.78;;;35.35;25.74
22964;BME280;11648;49.306;6.934;2023-10-09T12:32:13;98898.25;;;34.46;27.26
22964;BME280;11648;49.306;6.934;2023-10-09T12:34:40;98900.00;;;34.02;27.82
22964;BME280;11648;49.306;6.934;2023-10-09T12:37:09;98907.25;;;33.19;27.63
22964;BME280;11648;49.306;6.934;2023-10-09T12:39:35;98904.88;;;32.78;28.52
22964;BME280;11648;49.306;6.934;2023-10-09T12:42:06;98910.88;;;32.33;28.96
22964;BME280;11648;49.306;6.934;2023-10-09T12:44:36;98903.91;;;31.91;28.98
22964;BME280;11648;49.306;6.934;2023-10-09T12:47:09;98900.81;;;31.65;29.81
22964;BME280;11648;49.306;6.934;2023-10-09T12:49:38;98905.66;;;31.62;29.85
22964;BME280;11648;49.306;6.934;2023-10-09T12:52:09;98895.94;;;31.69;29.57
22964;BME280;11648;49.306;6.934;2023-10-09T12:54:43;98890.59;;;31.58;29.92
22964;BME280;11648;49.306;6.934;2023-10-09T12:57:13;98898.09;;;31.35;29.75
22964;BME280;11648;49.306;6.934;2023-10-09T12:59:42;98896.28;;;31.45;30.04
22964;BME280;11648;49.306;6.934;2023-10-09T13:02:13;98899.84;;;31.46;30.78
22964;BME280;11648;49.306;6.934;2023-10-09T13:04:56;98901.69;;;31.35;30.48
22964;BME280;11648;49.306;6.934;2023-10-09T13:07:23;98898.72;;;31.48;30.73
22964;BME280;11648;49.306;6.934;2023-10-09T13:09:49;98895.63;;;31.53;30.48
22964;BME280;11648;49.306;6.934;2023-10-09T13:12:35;98899.59;;;31.49;30.50
22964;BME280;11648;49.306;6.934;2023-10-09T13:15:11;98882.88;;;31.53;30.75
22964;BME280;11648;49.306;6.934;2023-10-09T13:17:38;98897.22;;;31.34;31.75
22964;BME280;11648;49.306;6.934;2023-10-09T13:20:06;98902.88;;;31.22;31.74
22964;BME280;11648;49.306;6.934;2023-10-09T13:22:43;98904.09;;;31.08;32.00
22964;BME280;11648;49.306;6.934;2023-10-09T13:25:11;98892.56;;;31.16;31.99
22964;BME280;11648;49.306;6.934;2023-10-09T13:28:01;98903.66;;;31.03;32.97
22964;BME280;11648;49.306;6.934;2023-10-09T13:30:30;98899.75;;;31.26;32.26
22964;BME280;11648;49.306;6.934;2023-10-09T13:33:05;98885.97;;;31.18;31.49
22964;BME280;11648;49.306;6.934;2023-10-09T13:35:32;98894.59;;;31.23;31.92
22964;BME280;11648;49.306;6.934;2023-10-09T13:38:04;98893.97;;;31.10;32.77
22964;BME280;11648;49.306;6.934;2023-10-09T13:40:36;98892.16;;;31.20;32.54
22964;BME280;11648;49.306;6.934;2023-10-09T13:43:04;98890.41;;;31.19;31.79
22964;BME280;11648;49.306;6.934;2023-10-09T13:45:39;98890.09;;;31.13;32.19
22964;BME280;11648;49.306;6.934;2023-10-09T13:48:06;98892.94;;;31.11;31.83
22964;BME280;11648;49.306;6.934;2023-10-09T13:50:38;98893.19;;;31.29;31.46
22964;BME280;11648;49.306;6.934;2023-10-09T13:53:09;98886.72;;;31.20;32.80
22964;BME280;11648;49.306;6.934;2023-10-09T13:55:38;98890.72;;;31.26;31.92